createdAt,value
2022-08-11T00:02:26.126Z,35.03
2022-08-11T00:04:52.470Z,35.12
2022-08-11T00:07:19.463Z,35.21
2022-08-11T00:09:45.772Z,35.36
2022-08-11T00:12:12.087Z,35.49
2022-08-11T00:14:38.402Z,35.67
2022-08-11T00:17:04.736Z,35.12
2022-08-11T00:20:12.714Z,35.53
2022-08-11T00:22:17.334Z,35.59
2022-08-11T00:24:53.560Z,35.43
2022-08-11T00:27:21.368Z,35.33
2022-08-11T00:29:51.814Z,35.50
2022-08-11T00:32:18.322Z,35.05
2022-08-11T00:34:44.632Z,35.37
2022-08-11T00:37:10.944Z,35.09
2022-08-11T00:39:37.286Z,35.16
2022-08-11T00:42:03.641Z,35.56
2022-08-11T00:44:29.974Z,35.38
2022-08-11T00:46:56.855Z,35.13
2022-08-11T00:49:23.168Z,35.45
2022-08-11T00:52:03.880Z,35.03
2022-08-11T00:54:33.128Z,35.39
2022-08-11T00:56:59.657Z,35.24
2022-08-11T00:59:35.104Z,35.64
2022-08-11T01:02:02.185Z,35.33
2022-08-11T01:04:28.502Z,35.37
2022-08-11T01:06:54.831Z,35.26
2022-08-11T01:09:22.271Z,35.34
2022-08-11T01:11:56.042Z,35.47
2022-08-11T01:14:34.246Z,35.41
2022-08-11T01:17:00.964Z,35.44
2022-08-11T01:19:27.287Z,35.81
2022-08-11T01:21:53.605Z,35.25
2022-08-11T01:24:21.444Z,35.49
2022-08-11T01:26:47.757Z,35.24
2022-08-11T01:29:14.068Z,35.22
2022-08-11T01:31:40.389Z,35.31
2022-08-11T01:34:06.708Z,35.12
2022-08-11T01:36:33.011Z,35.37
2022-08-11T01:38:59.323Z,35.29
2022-08-11T01:41:25.632Z,35.41
2022-08-11T01:43:51.940Z,34.97
2022-08-11T01:46:18.247Z,35.18
2022-08-11T01:48:44.566Z,34.92
2022-08-11T01:51:14.869Z,34.61
2022-08-11T01:53:43.659Z,34.46
2022-08-11T01:56:09.976Z,34.79
2022-08-11T01:58:44.106Z,34.68
2022-08-11T02:01:10.821Z,34.36
2022-08-11T02:03:37.181Z,34.74
2022-08-11T02:06:03.497Z,34.55
2022-08-11T02:08:33.084Z,34.43
2022-08-11T02:10:59.973Z,34.66
2022-08-11T02:13:36.654Z,34.73
2022-08-11T02:16:03.247Z,34.79
2022-08-11T02:18:29.553Z,34.97
2022-08-11T02:20:55.865Z,34.34
2022-08-11T02:23:41.090Z,34.69
2022-08-11T02:26:08.474Z,34.63
2022-08-11T02:28:38.896Z,34.72
2022-08-11T02:31:15.573Z,34.60
2022-08-11T02:33:58.905Z,34.20
2022-08-11T02:36:25.319Z,34.25
2022-08-11T02:38:51.659Z,34.35
2022-08-11T02:41:17.976Z,33.99
2022-08-11T02:43:46.077Z,34.35
2022-08-11T02:46:18.396Z,34.31
2022-08-11T02:48:44.973Z,34.39
2022-08-11T02:51:11.329Z,34.54
2022-08-11T02:53:37.645Z,34.91
2022-08-11T02:56:03.974Z,34.63
2022-08-11T02:58:30.294Z,34.99
2022-08-11T03:00:56.658Z,34.62
2022-08-11T03:03:23.021Z,35.37
2022-08-11T03:05:49.385Z,34.95
2022-08-11T03:08:19.243Z,34.91
2022-08-11T03:10:45.604Z,35.09
2022-08-11T03:13:11.967Z,34.75
2022-08-11T03:15:42.001Z,35.27
2022-08-11T03:18:11.005Z,35.19
2022-08-11T03:20:38.407Z,35.04
2022-08-11T03:23:05.679Z,34.85
2022-08-11T03:25:46.545Z,35.12
2022-08-11T03:28:12.917Z,34.78
2022-08-11T03:30:39.275Z,35.23
2022-08-11T03:33:05.655Z,34.93
2022-08-11T03:35:32.009Z,35.01
2022-08-11T03:37:58.398Z,34.91
2022-08-11T03:40:24.763Z,34.55
2022-08-11T03:42:51.140Z,34.62
2022-08-11T03:45:18.276Z,35.07
2022-08-11T03:47:52.298Z,34.83
2022-08-11T03:50:21.813Z,35.14
2022-08-11T03:52:48.171Z,35.12
2022-08-11T03:55:14.525Z,34.67
2022-08-11T03:57:40.885Z,34.87
2022-08-11T04:00:07.237Z,34.85
2022-08-11T04:02:33.606Z,34.98
2022-08-11T04:04:59.970Z,35.03
2022-08-11T04:07:26.515Z,35.24
2022-08-11T04:09:52.889Z,34.91
2022-08-11T04:12:35.420Z,34.88
2022-08-11T04:15:03.198Z,35.04
2022-08-11T04:17:29.561Z,34.81
2022-08-11T04:19:55.956Z,35.08
2022-08-11T04:22:22.326Z,34.90
2022-08-11T04:24:50.570Z,34.84
2022-08-11T04:27:17.121Z,35.06
2022-08-11T04:30:04.929Z,35.06
2022-08-11T04:32:31.707Z,34.74
2022-08-11T04:34:58.080Z,35.19
2022-08-11T04:37:24.454Z,34.76
2022-08-11T04:39:50.864Z,34.34
2022-08-11T04:42:17.237Z,34.55
2022-08-11T04:44:43.609Z,34.50
2022-08-11T04:47:09.960Z,35.74
2022-08-11T04:49:36.317Z,35.76
2022-08-11T04:52:02.677Z,35.13
2022-08-11T04:54:29.042Z,35.11
2022-08-11T04:56:55.410Z,35.99
2022-08-11T04:59:21.777Z,35.51
2022-08-11T05:01:48.187Z,35.91
2022-08-11T05:04:14.600Z,36.07
2022-08-11T05:06:40.962Z,36.00
2022-08-11T05:09:07.335Z,37.97
2022-08-11T05:11:33.706Z,36.37
2022-08-11T05:14:00.120Z,36.52
2022-08-11T05:16:26.486Z,36.94
2022-08-11T05:18:52.906Z,37.26
2022-08-11T05:21:19.261Z,36.92
2022-08-11T05:23:45.628Z,37.17
2022-08-11T05:26:46.974Z,37.39
2022-08-11T05:28:58.329Z,37.16
2022-08-11T05:31:24.713Z,37.34
2022-08-11T05:33:51.080Z,37.41
2022-08-11T05:36:17.453Z,37.41
2022-08-11T05:38:43.814Z,37.61
2022-08-11T05:41:10.177Z,37.29
2022-08-11T05:43:36.555Z,37.49
2022-08-11T05:46:06.226Z,37.67
2022-08-11T05:48:34.526Z,37.46
2022-08-11T05:51:00.950Z,37.72
2022-08-11T05:53:45.905Z,37.47
2022-08-11T05:56:12.825Z,38.16
2022-08-11T05:58:42.412Z,37.77
2022-08-11T06:01:09.416Z,37.64
2022-08-11T06:03:35.834Z,37.90
2022-08-11T06:06:02.214Z,37.87
2022-08-11T06:08:28.587Z,37.77
2022-08-11T06:10:54.944Z,37.73
2022-08-11T06:13:21.326Z,38.04
2022-08-11T06:15:47.688Z,38.21
2022-08-11T06:18:14.048Z,37.75
2022-08-11T06:20:40.429Z,37.94
2022-08-11T06:23:06.803Z,38.38
2022-08-11T06:25:33.191Z,38.04
2022-08-11T06:27:59.578Z,38.10
2022-08-11T06:30:25.974Z,38.40
2022-08-11T06:32:52.401Z,38.47
2022-08-11T06:35:18.767Z,38.22
2022-08-11T06:37:45.129Z,38.20
2022-08-11T06:40:11.517Z,38.58
2022-08-11T06:42:38.009Z,38.33
2022-08-11T06:45:04.508Z,38.11
2022-08-11T06:47:30.878Z,38.29
2022-08-11T06:49:57.249Z,38.68
2022-08-11T06:52:35.741Z,38.73
2022-08-11T06:55:02.554Z,38.39
2022-08-11T06:57:30.473Z,38.73
2022-08-11T06:59:57.486Z,38.94
2022-08-11T07:02:29.155Z,38.97
2022-08-11T07:04:57.376Z,38.50
2022-08-11T07:07:23.749Z,38.37
2022-08-11T07:09:50.117Z,38.59
2022-08-11T07:12:16.484Z,38.46
2022-08-11T07:14:42.864Z,38.56
2022-08-11T07:17:09.228Z,38.55
2022-08-11T07:19:35.606Z,38.29
2022-08-11T07:22:04.027Z,38.62
2022-08-11T07:24:58.646Z,38.56
2022-08-11T07:27:16.931Z,38.76
2022-08-11T07:29:43.305Z,38.60
2022-08-11T07:32:09.663Z,38.86
2022-08-11T07:34:36.034Z,38.65
2022-08-11T07:37:02.466Z,38.59
2022-08-11T07:39:28.928Z,38.51
2022-08-11T07:41:55.334Z,38.89
2022-08-11T07:44:21.736Z,39.08
2022-08-11T07:46:48.102Z,38.69
2022-08-11T07:49:14.470Z,38.46
2022-08-11T07:51:40.836Z,38.75
2022-08-11T07:54:16.503Z,38.74
2022-08-11T07:56:54.861Z,38.44
2022-08-11T07:59:22.047Z,38.45
2022-08-11T08:02:08.435Z,38.69
2022-08-11T08:04:34.824Z,38.95
2022-08-11T08:07:01.192Z,38.64
2022-08-11T08:09:27.550Z,38.69
2022-08-11T08:11:53.920Z,38.66
2022-08-11T08:14:20.288Z,38.94
2022-08-11T08:16:46.651Z,38.79
2022-08-11T08:19:13.005Z,38.84
2022-08-11T08:21:39.377Z,38.65
2022-08-11T08:24:05.745Z,39.06
2022-08-11T08:26:32.113Z,38.78
2022-08-11T08:28:58.490Z,38.85
2022-08-11T08:31:24.856Z,39.12
2022-08-11T08:33:51.213Z,39.15
2022-08-11T08:36:17.571Z,38.61
2022-08-11T08:38:43.957Z,38.85
2022-08-11T08:41:10.329Z,38.84
2022-08-11T08:43:48.515Z,39.29
2022-08-11T08:46:15.880Z,38.83
2022-08-11T08:48:42.259Z,39.14
2022-08-11T08:51:08.619Z,39.01
2022-08-11T08:53:34.974Z,38.88
2022-08-11T08:56:01.346Z,38.97
2022-08-11T08:58:27.695Z,39.15
2022-08-11T09:00:54.123Z,38.79
2022-08-11T09:03:41.073Z,39.28
2022-08-11T09:06:06.884Z,38.87
2022-08-11T09:08:33.244Z,39.10
2022-08-11T09:10:59.605Z,39.05
2022-08-11T09:13:25.976Z,38.89
2022-08-11T09:15:56.255Z,38.99
2022-08-11T09:18:22.923Z,38.98
2022-08-11T09:20:49.292Z,39.21
2022-08-11T09:26:02.022Z,39.21
2022-08-11T09:28:28.374Z,39.53
2022-08-11T09:30:54.726Z,39.45
2022-08-11T09:33:21.098Z,39.21
2022-08-11T09:35:47.480Z,39.30
2022-08-11T09:38:13.837Z,39.36
2022-08-11T09:40:40.203Z,39.26
2022-08-11T09:43:06.936Z,39.17
2022-08-11T09:45:39.951Z,39.40
2022-08-11T09:48:06.711Z,39.59
2022-08-11T09:50:33.072Z,39.29
2022-08-11T09:53:36.827Z,39.73
2022-08-11T09:55:46.640Z,39.55
2022-08-11T09:58:13.018Z,39.81
2022-08-11T10:00:59.394Z,39.77
2022-08-11T10:03:25.803Z,39.73
2022-08-11T10:05:52.164Z,39.70
2022-08-11T10:08:18.539Z,39.83
2022-08-11T10:10:44.906Z,39.94
2022-08-11T10:14:30.090Z,39.75
2022-08-11T10:16:00.058Z,39.90
2022-08-11T10:18:41.849Z,39.83
2022-08-11T10:21:08.205Z,40.04
2022-08-11T10:23:34.561Z,40.16
2022-08-11T10:26:20.919Z,40.03
2022-08-11T10:29:11.669Z,40.00
2022-08-11T10:31:45.141Z,40.15
2022-08-11T10:34:19.979Z,40.13
2022-08-11T10:36:49.170Z,40.04
2022-08-11T10:39:15.555Z,39.99
2022-08-11T10:42:07.373Z,39.98
2022-08-11T10:44:30.892Z,40.10
2022-08-11T10:46:57.255Z,40.06
2022-08-11T10:49:23.628Z,40.13
2022-08-11T10:51:52.149Z,40.18
2022-08-11T10:54:20.359Z,40.58
2022-08-11T10:56:46.730Z,40.38
2022-08-11T10:59:13.103Z,40.33
2022-08-11T11:01:41.974Z,40.47
2022-08-11T11:04:08.371Z,40.29
2022-08-11T11:06:34.731Z,40.52
2022-08-11T11:09:04.134Z,40.23
2022-08-11T11:11:31.059Z,40.47
2022-08-11T11:13:57.458Z,40.00
2022-08-11T11:16:24.867Z,40.49
2022-08-11T11:19:00.846Z,40.52
2022-08-11T11:21:27.646Z,40.51
2022-08-11T11:23:54.012Z,40.60
2022-08-11T11:26:27.434Z,40.67
2022-08-11T11:28:54.293Z,40.65
2022-08-11T11:31:21.259Z,40.78
2022-08-11T11:34:06.146Z,40.36
2022-08-11T11:36:33.965Z,40.43
2022-08-11T11:39:00.333Z,40.68
2022-08-11T11:41:26.683Z,40.95
2022-08-11T11:43:53.035Z,41.10
2022-08-11T11:46:19.392Z,40.63
2022-08-11T11:48:45.741Z,40.65
2022-08-11T11:51:12.107Z,40.88
2022-08-11T11:53:38.469Z,40.87
2022-08-11T11:56:04.821Z,40.53
2022-08-11T11:58:31.190Z,40.61
2022-08-11T12:00:57.556Z,40.50
2022-08-11T12:03:24.005Z,40.56
2022-08-11T12:05:50.394Z,40.88
2022-08-11T12:08:16.752Z,41.00
2022-08-11T12:10:43.121Z,40.75
2022-08-11T12:13:09.487Z,40.75
2022-08-11T12:16:34.483Z,41.10
2022-08-11T12:18:23.249Z,40.82
2022-08-11T12:20:49.622Z,40.60
2022-08-11T12:23:15.989Z,40.95
2022-08-11T12:25:42.353Z,40.75
2022-08-11T12:28:08.718Z,41.04
2022-08-11T12:30:35.086Z,40.95
2022-08-11T12:33:01.535Z,40.92
2022-08-11T12:35:27.910Z,41.09
2022-08-11T12:37:58.775Z,40.96
2022-08-11T12:40:48.816Z,41.04
2022-08-11T12:43:21.557Z,41.00
2022-08-11T12:45:48.713Z,40.85
2022-08-11T12:49:00.641Z,40.88
2022-08-11T12:51:01.412Z,41.02
2022-08-11T12:53:27.777Z,40.97
2022-08-11T12:56:07.418Z,40.93
2022-08-11T12:58:34.052Z,40.91
2022-08-11T13:01:00.522Z,40.85
2022-08-11T13:03:26.957Z,41.09
2022-08-11T13:05:53.317Z,40.87
2022-08-11T13:08:19.681Z,41.00
2022-08-11T13:10:46.046Z,40.94
2022-08-11T13:13:52.817Z,41.00
2022-08-11T13:15:58.752Z,41.01
2022-08-11T13:18:25.112Z,41.25
2022-08-11T13:20:51.478Z,41.11
2022-08-11T13:23:17.849Z,41.23
2022-08-11T13:25:44.201Z,41.25
2022-08-11T13:28:10.566Z,40.89
2022-08-11T13:30:40.374Z,41.19
2022-08-11T13:33:08.460Z,41.22
2022-08-11T13:35:34.825Z,41.11
2022-08-11T13:38:18.533Z,40.91
2022-08-11T13:40:55.805Z,41.41
2022-08-11T13:43:22.536Z,41.21
2022-08-11T13:45:48.902Z,41.22
2022-08-11T13:48:15.262Z,41.18
2022-08-11T13:50:41.638Z,41.50
2022-08-11T13:53:08.016Z,41.19
2022-08-11T13:55:51.489Z,41.38
2022-08-11T13:58:39.919Z,41.36
2022-08-11T14:02:03.111Z,41.09
2022-08-11T14:04:30.017Z,41.39
2022-08-11T14:06:37.967Z,41.01
2022-08-11T14:09:04.323Z,41.11
2022-08-11T14:12:21.692Z,41.14
2022-08-11T14:14:17.026Z,41.53
2022-08-11T14:16:43.398Z,41.18
2022-08-11T14:19:09.753Z,41.01
2022-08-11T14:21:36.128Z,41.25
2022-08-11T14:24:02.493Z,41.30
2022-08-11T14:26:28.877Z,41.40
2022-08-11T14:28:55.263Z,41.46
2022-08-11T14:31:21.631Z,41.14
2022-08-11T14:34:00.913Z,41.31
2022-08-11T14:36:28.304Z,41.28
2022-08-11T14:38:54.668Z,41.25
2022-08-11T14:41:21.026Z,41.38
2022-08-11T14:44:13.192Z,41.31
2022-08-11T14:46:33.742Z,41.25
2022-08-11T14:49:00.121Z,41.15
2022-08-11T14:51:26.477Z,41.16
2022-08-11T14:53:58.750Z,41.34
2022-08-11T14:56:25.395Z,41.43
2022-08-11T14:58:51.768Z,41.20
2022-08-11T15:01:18.243Z,41.60
2022-08-11T15:04:34.099Z,41.75
2022-08-11T15:06:31.009Z,41.42
2022-08-11T15:08:57.388Z,41.42
2022-08-11T15:11:23.749Z,41.72
2022-08-11T15:13:50.117Z,41.47
2022-08-11T15:16:16.480Z,41.58
2022-08-11T15:18:42.842Z,41.63
2022-08-11T15:21:09.209Z,41.64
2022-08-11T15:23:35.569Z,41.77
2022-08-11T15:26:01.926Z,41.36
2022-08-11T15:28:28.275Z,41.72
2022-08-11T15:30:54.666Z,41.63
2022-08-11T15:33:21.029Z,41.56
2022-08-11T15:35:47.382Z,41.65
2022-08-11T15:38:13.737Z,41.71
2022-08-11T15:40:40.159Z,41.60
2022-08-11T15:43:12.724Z,41.88
2022-08-11T15:45:39.305Z,41.73
2022-08-11T15:48:07.972Z,41.77
2022-08-11T15:50:36.984Z,41.54
2022-08-11T15:53:03.345Z,42.00
2022-08-11T15:55:29.707Z,41.79
2022-08-11T15:57:56.087Z,41.69
2022-08-11T16:00:24.553Z,41.73
2022-08-11T16:02:50.999Z,42.09
2022-08-11T16:05:45.033Z,42.14
2022-08-11T16:08:03.701Z,42.06
2022-08-11T16:10:30.062Z,41.90
2022-08-11T16:13:00.177Z,42.14
2022-08-11T16:15:26.542Z,42.19
2022-08-11T16:17:52.918Z,41.81
2022-08-11T16:20:19.283Z,41.84
2022-08-11T16:22:55.140Z,41.76
2022-08-11T16:25:58.084Z,41.97
2022-08-11T16:28:14.622Z,41.73
2022-08-11T16:30:41.059Z,42.00
2022-08-11T16:33:48.104Z,41.98
2022-08-11T16:35:53.762Z,42.03
2022-08-11T16:38:20.140Z,41.73
2022-08-11T16:40:46.514Z,41.90
2022-08-11T16:43:12.888Z,41.75
2022-08-11T16:45:39.254Z,42.06
2022-08-11T16:48:32.503Z,41.98
2022-08-11T16:50:51.964Z,42.12
2022-08-11T16:53:18.318Z,42.00
2022-08-11T16:55:52.736Z,42.08
2022-08-11T16:58:19.364Z,41.76
2022-08-11T17:00:46.092Z,42.04
2022-08-11T17:03:12.517Z,42.10
2022-08-11T17:05:54.208Z,41.96
2022-08-11T17:08:22.764Z,42.04
2022-08-11T17:10:54.790Z,41.93
2022-08-11T17:13:24.054Z,41.97
2022-08-11T17:15:50.927Z,42.28
2022-08-11T17:18:17.442Z,41.77
2022-08-11T17:20:44.398Z,42.06
2022-08-11T17:23:13.318Z,42.25
2022-08-11T17:26:03.717Z,42.00
2022-08-11T17:28:26.266Z,42.45
2022-08-11T17:30:52.633Z,42.01
2022-08-11T17:33:18.983Z,42.41
2022-08-11T17:35:45.342Z,42.55
2022-08-11T17:38:11.715Z,42.44
2022-08-11T17:40:38.085Z,42.47
2022-08-11T17:43:04.472Z,42.52
2022-08-11T17:45:30.843Z,42.74
2022-08-11T17:47:57.208Z,42.70
2022-08-11T17:50:23.564Z,43.09
2022-08-11T17:52:49.940Z,43.10
2022-08-11T17:55:16.309Z,42.99
2022-08-11T17:58:02.669Z,43.00
2022-08-11T18:00:29.028Z,43.03
2022-08-11T18:02:55.391Z,43.11
2022-08-11T18:05:21.746Z,43.21
2022-08-11T18:07:48.117Z,43.10
2022-08-11T18:10:14.486Z,43.30
2022-08-11T18:12:40.831Z,43.18
2022-08-11T18:15:07.209Z,43.73
2022-08-11T18:17:33.659Z,43.40
2022-08-11T18:20:00.114Z,43.61
2022-08-11T18:25:10.453Z,43.34
2022-08-11T18:27:36.825Z,43.22
2022-08-11T18:30:03.199Z,43.85
2022-08-11T18:32:46.084Z,43.78
2022-08-11T18:35:15.816Z,43.52
2022-08-11T18:37:42.358Z,43.16
2022-08-11T18:40:08.833Z,42.97
2022-08-11T18:42:35.195Z,42.79
2022-08-11T18:45:01.549Z,43.41
2022-08-11T18:47:28.916Z,42.71
2022-08-11T18:50:02.569Z,42.63
2022-08-11T18:52:31.440Z,43.03
2022-08-11T18:54:57.805Z,42.58
2022-08-11T18:57:24.200Z,42.36
2022-08-11T18:59:50.588Z,42.07
2022-08-11T19:02:16.959Z,42.01
2022-08-11T19:04:43.326Z,41.62
2022-08-11T19:07:09.698Z,41.80
2022-08-11T19:09:36.064Z,41.48
2022-08-11T19:12:02.429Z,41.48
2022-08-11T19:14:28.825Z,41.49
2022-08-11T19:16:55.209Z,41.29
2022-08-11T19:19:21.573Z,41.43
2022-08-11T19:21:47.937Z,41.33
2022-08-11T19:24:14.323Z,41.27
2022-08-11T19:26:40.688Z,41.23
2022-08-11T19:29:07.086Z,41.22
2022-08-11T19:31:33.451Z,41.41
2022-08-11T19:34:10.023Z,41.36
2022-08-11T19:36:37.192Z,41.28
2022-08-11T19:39:03.563Z,41.43
2022-08-11T19:41:56.426Z,41.05
2022-08-11T19:44:16.769Z,41.46
2022-08-11T19:46:43.173Z,40.78
2022-08-11T19:49:09.531Z,40.37
2022-08-11T19:51:35.929Z,40.67
2022-08-11T19:54:02.370Z,40.54
2022-08-11T19:56:28.734Z,39.64
2022-08-11T19:58:55.092Z,39.69
2022-08-11T20:01:21.536Z,40.10
2022-08-11T20:03:47.911Z,40.01
2022-08-11T20:06:14.289Z,40.32
2022-08-11T20:08:40.656Z,40.14
2022-08-11T20:11:07.029Z,39.71
2022-08-11T20:13:33.386Z,39.92
2022-08-11T20:16:00.764Z,39.67
2022-08-11T20:18:27.134Z,39.83
2022-08-11T20:20:53.502Z,39.79
2022-08-11T20:23:19.955Z,39.06
2022-08-11T20:25:46.482Z,39.38
2022-08-11T20:28:12.856Z,39.88
2022-08-11T20:30:39.209Z,39.90
2022-08-11T20:33:05.557Z,39.82
2022-08-11T20:35:31.931Z,39.87
2022-08-11T20:37:58.285Z,39.70
2022-08-11T20:40:24.642Z,39.85
2022-08-11T20:42:50.993Z,39.67
2022-08-11T20:45:17.344Z,39.84
2022-08-11T20:47:58.913Z,39.90
2022-08-11T20:50:26.989Z,40.01
2022-08-11T20:52:55.115Z,39.59
2022-08-11T20:55:26.147Z,40.10
2022-08-11T20:58:08.172Z,39.51
2022-08-11T21:00:41.580Z,39.42
2022-08-11T21:03:10.466Z,39.27
2022-08-11T21:06:10.238Z,39.68
2022-08-11T21:08:25.416Z,39.43
2022-08-11T21:10:52.349Z,39.33
2022-08-11T21:13:25.250Z,39.13
2022-08-11T21:16:03.097Z,39.13
2022-08-11T21:18:29.847Z,39.35
2022-08-11T21:20:56.219Z,38.89
2022-08-11T21:23:24.101Z,39.26
2022-08-11T21:25:50.891Z,39.00
2022-08-11T21:28:17.276Z,38.77
2022-08-11T21:30:43.629Z,38.90
2022-08-11T21:33:09.999Z,38.82
2022-08-11T21:35:36.361Z,38.84
2022-08-11T21:38:11.494Z,38.66
2022-08-11T21:40:37.863Z,38.98
2022-08-11T21:43:04.224Z,39.00
2022-08-11T21:45:30.598Z,38.92
2022-08-11T21:48:01.003Z,38.97
2022-08-11T21:50:27.849Z,39.03
2022-08-11T21:52:54.244Z,38.54
2022-08-11T21:55:21.405Z,38.67
2022-08-11T21:57:50.321Z,38.52
2022-08-11T22:00:17.013Z,38.51
2022-08-11T22:02:44.175Z,38.78
2022-08-11T22:05:18.603Z,38.36
2022-08-11T22:07:44.973Z,38.88
2022-08-11T22:10:37.663Z,38.79
2022-08-11T22:12:57.670Z,38.71
2022-08-11T22:15:24.037Z,38.62
2022-08-11T22:17:53.628Z,38.58
2022-08-11T22:20:22.342Z,38.50
2022-08-11T22:22:53.122Z,38.64
2022-08-11T22:25:20.001Z,38.64
2022-08-11T22:27:47.086Z,38.87
2022-08-11T22:30:13.457Z,38.65
2022-08-11T22:32:39.934Z,38.77
2022-08-11T22:35:06.444Z,38.92
2022-08-11T22:37:32.792Z,38.99
2022-08-11T22:40:01.883Z,39.03
2022-08-11T22:42:33.281Z,38.87
2022-08-11T22:45:00.397Z,38.95
2022-08-11T22:47:27.395Z,39.08
2022-08-11T22:50:02.758Z,39.08
2022-08-11T22:52:29.130Z,38.79
2022-08-11T22:54:55.481Z,39.00
2022-08-11T22:57:21.840Z,39.40
2022-08-11T22:59:48.208Z,38.88
2022-08-11T23:02:14.578Z,39.11
2022-08-11T23:04:40.941Z,39.08
2022-08-11T23:07:07.291Z,38.85
2022-08-11T23:09:33.658Z,38.99
2022-08-11T23:12:06.694Z,38.37
2022-08-11T23:14:36.428Z,38.66
2022-08-11T23:17:02.798Z,38.62
2022-08-11T23:20:07.021Z,38.49
2022-08-11T23:22:15.500Z,38.98
2022-08-11T23:24:42.050Z,38.70
2022-08-11T23:27:08.407Z,38.77
2022-08-11T23:29:34.766Z,38.81
2022-08-11T23:32:01.120Z,38.60
2022-08-11T23:34:41.490Z,38.76
2022-08-11T23:37:13.822Z,38.79
2022-08-11T23:39:40.255Z,38.81
2022-08-11T23:42:06.689Z,38.92
2022-08-11T23:44:33.058Z,38.96
2022-08-11T23:46:59.420Z,39.20
2022-08-11T23:49:25.781Z,39.34
2022-08-11T23:51:52.140Z,39.19
2022-08-11T23:54:18.496Z,39.13
2022-08-11T23:56:44.859Z,39.22
2022-08-11T23:59:11.228Z,39.16
